sensor_id;sensor_type;location;lat;lon;timestamp;temperature;humidity
62904;DHT22;49000;50.698;13.322;2023-02-25T00:02:08;1.00;99.90
62904;DHT22;49000;50.698;13.322;2023-02-25T00:04:34;1.40;99.90
62904;DHT22;49000;50.698;13.322;2023-02-25T00:07:01;1.50;99.90
62904;DHT22;49000;50.698;13.322;2023-02-25T00:09:28;1.30;99.90
62904;DHT22;49000;50.698;13.322;2023-02-25T00:11:54;1.20;99.90
62904;DHT22;49000;50.698;13.322;2023-02-25T00:14:19;1.20;99.90
62904;DHT22;49000;50.698;13.322;2023-02-25T00:16:45;1.10;99.90
62904;DHT22;49000;50.698;13.322;2023-02-25T00:19:10;1.10;99.90
62904;DHT22;49000;50.698;13.322;2023-02-25T00:21:36;1.00;99.90
62904;DHT22;49000;50.698;13.322;2023-02-25T00:24:02;1.40;99.90
62904;DHT22;49000;50.698;13.322;2023-02-25T00:26:28;1.20;99.90
62904;DHT22;49000;50.698;13.322;2023-02-25T00:28:53;1.20;99.90
62904;DHT22;49000;50.698;13.322;2023-02-25T00:31:21;0.90;99.90
62904;DHT22;49000;50.698;13.322;2023-02-25T00:33:47;0.70;99.90
62904;DHT22;49000;50.698;13.322;2023-02-25T00:36:21;0.90;99.90
62904;DHT22;49000;50.698;13.322;2023-02-25T00:38:48;1.30;99.90
62904;DHT22;49000;50.698;13.322;2023-02-25T00:41:16;1.40;99.90
62904;DHT22;49000;50.698;13.322;2023-02-25T00:43:51;1.40;99.90
62904;DHT22;49000;50.698;13.322;2023-02-25T00:46:17;1.20;99.90
62904;DHT22;49000;50.698;13.322;2023-02-25T00:48:43;1.10;99.90
62904;DHT22;49000;50.698;13.322;2023-02-25T00:51:12;0.90;99.90
62904;DHT22;49000;50.698;13.322;2023-02-25T00:53:38;1.10;99.90
62904;DHT22;49000;50.698;13.322;2023-02-25T00:56:06;1.00;99.90
62904;DHT22;49000;50.698;13.322;2023-02-25T00:58:35;1.10;99.90
62904;DHT22;49000;50.698;13.322;2023-02-25T01:01:01;1.20;99.90
62904;DHT22;49000;50.698;13.322;2023-02-25T01:03:27;1.10;99.90
62904;DHT22;49000;50.698;13.322;2023-02-25T01:05:52;1.30;99.90
62904;DHT22;49000;50.698;13.322;2023-02-25T01:08:19;1.20;99.90
62904;DHT22;49000;50.698;13.322;2023-02-25T01:10:45;1.10;99.90
62904;DHT22;49000;50.698;13.322;2023-02-25T01:13:12;1.00;99.90
62904;DHT22;49000;50.698;13.322;2023-02-25T01:15:37;1.30;99.90
62904;DHT22;49000;50.698;13.322;2023-02-25T01:18:03;1.10;99.90
62904;DHT22;49000;50.698;13.322;2023-02-25T01:20:29;1.00;99.90
62904;DHT22;49000;50.698;13.322;2023-02-25T01:22:55;1.00;99.90
62904;DHT22;49000;50.698;13.322;2023-02-25T01:25:21;1.40;99.90
62904;DHT22;49000;50.698;13.322;2023-02-25T01:27:52;0.70;99.90
62904;DHT22;49000;50.698;13.322;2023-02-25T01:30:18;1.00;99.90
62904;DHT22;49000;50.698;13.322;2023-02-25T01:32:44;1.00;99.90
62904;DHT22;49000;50.698;13.322;2023-02-25T01:35:09;1.20;99.90
62904;DHT22;49000;50.698;13.322;2023-02-25T01:37:35;1.00;99.90
62904;DHT22;49000;50.698;13.322;2023-02-25T01:40:00;1.10;99.90
62904;DHT22;49000;50.698;13.322;2023-02-25T01:42:26;0.80;99.90
62904;DHT22;49000;50.698;13.322;2023-02-25T01:45:22;1.10;99.90
62904;DHT22;49000;50.698;13.322;2023-02-25T01:48:01;1.40;99.90
62904;DHT22;49000;50.698;13.322;2023-02-25T01:50:35;1.30;99.90
62904;DHT22;49000;50.698;13.322;2023-02-25T01:53:02;1.30;99.90
62904;DHT22;49000;50.698;13.322;2023-02-25T01:55:28;1.20;99.90
62904;DHT22;49000;50.698;13.322;2023-02-25T01:57:56;1.20;99.90
62904;DHT22;49000;50.698;13.322;2023-02-25T02:00:22;1.20;99.90
62904;DHT22;49000;50.698;13.322;2023-02-25T02:02:48;1.20;99.90
62904;DHT22;49000;50.698;13.322;2023-02-25T02:05:14;1.40;99.90
62904;DHT22;49000;50.698;13.322;2023-02-25T02:07:39;1.20;99.90
62904;DHT22;49000;50.698;13.322;2023-02-25T02:10:06;1.30;99.90
62904;DHT22;49000;50.698;13.322;2023-02-25T02:12:34;1.30;99.90
62904;DHT22;49000;50.698;13.322;2023-02-25T02:15:02;1.10;99.90
62904;DHT22;49000;50.698;13.322;2023-02-25T02:22:44;1.00;99.90
62904;DHT22;49000;50.698;13.322;2023-02-25T02:31:31;1.00;99.90
62904;DHT22;49000;50.698;13.322;2023-02-25T02:34:15;1.00;99.90
62904;DHT22;49000;50.698;13.322;2023-02-25T02:39:54;1.10;99.90
62904;DHT22;49000;50.698;13.322;2023-02-25T02:45:46;0.90;99.90
62904;DHT22;49000;50.698;13.322;2023-02-25T02:48:17;1.00;99.90
62904;DHT22;49000;50.698;13.322;2023-02-25T02:50:55;0.90;99.90
62904;DHT22;49000;50.698;13.322;2023-02-25T02:53:39;0.70;99.90
62904;DHT22;49000;50.698;13.322;2023-02-25T02:56:07;1.10;99.90
62904;DHT22;49000;50.698;13.322;2023-02-25T02:58:42;1.00;99.90
62904;DHT22;49000;50.698;13.322;2023-02-25T03:01:13;0.90;99.90
62904;DHT22;49000;50.698;13.322;2023-02-25T03:03:43;0.90;99.90
62904;DHT22;49000;50.698;13.322;2023-02-25T03:06:16;0.90;99.90
62904;DHT22;49000;50.698;13.322;2023-02-25T03:08:49;0.80;99.90
62904;DHT22;49000;50.698;13.322;2023-02-25T03:11:17;0.80;99.90
62904;DHT22;49000;50.698;13.322;2023-02-25T03:13:42;0.80;99.90
62904;DHT22;49000;50.698;13.322;2023-02-25T03:16:12;1.00;99.90
62904;DHT22;49000;50.698;13.322;2023-02-25T03:19:01;0.40;99.90
62904;DHT22;49000;50.698;13.322;2023-02-25T03:21:36;0.80;99.90
62904;DHT22;49000;50.698;13.322;2023-02-25T03:24:04;0.80;99.90
62904;DHT22;49000;50.698;13.322;2023-02-25T03:26:32;0.90;99.90
62904;DHT22;49000;50.698;13.322;2023-02-25T03:28:59;0.30;99.90
62904;DHT22;49000;50.698;13.322;2023-02-25T03:31:28;0.50;99.90
62904;DHT22;49000;50.698;13.322;2023-02-25T03:34:01;0.30;99.90
62904;DHT22;49000;50.698;13.322;2023-02-25T03:36:29;0.80;99.90
62904;DHT22;49000;50.698;13.322;2023-02-25T03:38:59;0.40;99.90
62904;DHT22;49000;50.698;13.322;2023-02-25T03:41:31;0.60;99.90
62904;DHT22;49000;50.698;13.322;2023-02-25T03:43:59;0.90;99.90
62904;DHT22;49000;50.698;13.322;2023-02-25T03:46:26;0.70;99.90
62904;DHT22;49000;50.698;13.322;2023-02-25T03:48:52;0.70;99.90
62904;DHT22;49000;50.698;13.322;2023-02-25T03:51:23;0.70;99.90
62904;DHT22;49000;50.698;13.322;2023-02-25T03:53:51;0.70;99.90
62904;DHT22;49000;50.698;13.322;2023-02-25T03:56:16;0.40;99.90
62904;DHT22;49000;50.698;13.322;2023-02-25T03:58:42;0.20;99.90
62904;DHT22;49000;50.698;13.322;2023-02-25T04:01:17;0.90;99.90
62904;DHT22;49000;50.698;13.322;2023-02-25T04:03:43;0.80;99.90
62904;DHT22;49000;50.698;13.322;2023-02-25T04:06:11;0.80;99.90
62904;DHT22;49000;50.698;13.322;2023-02-25T04:08:37;0.30;99.90
62904;DHT22;49000;50.698;13.322;2023-02-25T04:11:02;0.60;99.90
62904;DHT22;49000;50.698;13.322;2023-02-25T04:13:28;0.80;99.90
62904;DHT22;49000;50.698;13.322;2023-02-25T04:15:53;0.80;99.90
62904;DHT22;49000;50.698;13.322;2023-02-25T04:18:19;0.90;99.90
62904;DHT22;49000;50.698;13.322;2023-02-25T04:20:44;0.50;99.90
62904;DHT22;49000;50.698;13.322;2023-02-25T04:23:13;0.40;99.90
62904;DHT22;49000;50.698;13.322;2023-02-25T04:25:39;0.30;99.90
62904;DHT22;49000;50.698;13.322;2023-02-25T04:28:05;0.70;99.90
62904;DHT22;49000;50.698;13.322;2023-02-25T04:30:30;0.40;99.90
62904;DHT22;49000;50.698;13.322;2023-02-25T04:32:56;0.70;99.90
62904;DHT22;49000;50.698;13.322;2023-02-25T04:35:21;0.80;99.90
62904;DHT22;49000;50.698;13.322;2023-02-25T04:37:47;0.80;99.90
62904;DHT22;49000;50.698;13.322;2023-02-25T04:40:17;1.00;99.90
62904;DHT22;49000;50.698;13.322;2023-02-25T04:42:43;0.90;99.90
62904;DHT22;49000;50.698;13.322;2023-02-25T04:45:10;0.70;99.90
62904;DHT22;49000;50.698;13.322;2023-02-25T04:47:37;0.80;99.90
62904;DHT22;49000;50.698;13.322;2023-02-25T04:50:03;0.60;99.90
62904;DHT22;49000;50.698;13.322;2023-02-25T04:52:29;0.70;99.90
62904;DHT22;49000;50.698;13.322;2023-02-25T04:54:55;0.10;99.90
62904;DHT22;49000;50.698;13.322;2023-02-25T04:57:20;0.70;99.90
62904;DHT22;49000;50.698;13.322;2023-02-25T04:59:46;0.50;99.90
62904;DHT22;49000;50.698;13.322;2023-02-25T05:02:11;0.50;99.90
62904;DHT22;49000;50.698;13.322;2023-02-25T05:04:38;0.50;99.90
62904;DHT22;49000;50.698;13.322;2023-02-25T05:07:04;0.40;99.90
62904;DHT22;49000;50.698;13.322;2023-02-25T05:09:30;0.60;99.90
62904;DHT22;49000;50.698;13.322;2023-02-25T05:11:56;0.50;99.90
62904;DHT22;49000;50.698;13.322;2023-02-25T05:14:22;0.60;99.90
62904;DHT22;49000;50.698;13.322;2023-02-25T05:16:47;0.50;99.90
62904;DHT22;49000;50.698;13.322;2023-02-25T05:19:15;0.70;99.90
62904;DHT22;49000;50.698;13.322;2023-02-25T05:21:40;0.20;99.90
62904;DHT22;49000;50.698;13.322;2023-02-25T05:24:06;0.50;99.90
62904;DHT22;49000;50.698;13.322;2023-02-25T05:26:32;0.60;99.90
62904;DHT22;49000;50.698;13.322;2023-02-25T05:28:57;0.00;99.90
62904;DHT22;49000;50.698;13.322;2023-02-25T05:31:23;0.70;99.90
62904;DHT22;49000;50.698;13.322;2023-02-25T05:33:49;0.10;99.90
62904;DHT22;49000;50.698;13.322;2023-02-25T05:36:15;0.70;99.90
62904;DHT22;49000;50.698;13.322;2023-02-25T05:38:41;0.40;99.90
62904;DHT22;49000;50.698;13.322;2023-02-25T05:41:08;0.20;99.90
62904;DHT22;49000;50.698;13.322;2023-02-25T05:43:35;0.50;99.90
62904;DHT22;49000;50.698;13.322;2023-02-25T05:46:01;0.50;99.90
62904;DHT22;49000;50.698;13.322;2023-02-25T05:48:29;0.70;99.90
62904;DHT22;49000;50.698;13.322;2023-02-25T05:51:00;0.60;99.90
62904;DHT22;49000;50.698;13.322;2023-02-25T05:53:26;0.30;99.90
62904;DHT22;49000;50.698;13.322;2023-02-25T05:55:51;0.20;99.90
62904;DHT22;49000;50.698;13.322;2023-02-25T05:58:17;0.50;99.90
62904;DHT22;49000;50.698;13.322;2023-02-25T06:00:42;0.30;99.90
62904;DHT22;49000;50.698;13.322;2023-02-25T06:03:08;0.50;99.90
62904;DHT22;49000;50.698;13.322;2023-02-25T06:05:33;0.40;99.90
62904;DHT22;49000;50.698;13.322;2023-02-25T06:07:59;0.50;99.90
62904;DHT22;49000;50.698;13.322;2023-02-25T06:10:26;-0.20;99.90
62904;DHT22;49000;50.698;13.322;2023-02-25T06:12:51;0.10;99.90
62904;DHT22;49000;50.698;13.322;2023-02-25T06:15:17;0.40;99.90
62904;DHT22;49000;50.698;13.322;2023-02-25T06:17:43;0.00;99.90
62904;DHT22;49000;50.698;13.322;2023-02-25T06:20:09;0.30;99.90
62904;DHT22;49000;50.698;13.322;2023-02-25T06:22:35;0.20;99.90
62904;DHT22;49000;50.698;13.322;2023-02-25T06:25:00;0.40;99.90
62904;DHT22;49000;50.698;13.322;2023-02-25T06:27:26;0.20;99.90
62904;DHT22;49000;50.698;13.322;2023-02-25T06:29:51;-0.20;99.90
62904;DHT22;49000;50.698;13.322;2023-02-25T06:32:17;0.00;99.90
62904;DHT22;49000;50.698;13.322;2023-02-25T06:34:43;-0.20;99.90
62904;DHT22;49000;50.698;13.322;2023-02-25T06:37:09;0.00;99.90
62904;DHT22;49000;50.698;13.322;2023-02-25T06:39:34;0.50;99.90
62904;DHT22;49000;50.698;13.322;2023-02-25T06:42:00;0.30;99.90
62904;DHT22;49000;50.698;13.322;2023-02-25T06:44:26;-0.10;99.90
62904;DHT22;49000;50.698;13.322;2023-02-25T06:46:53;0.60;99.90
62904;DHT22;49000;50.698;13.322;2023-02-25T06:49:22;0.30;99.90
62904;DHT22;49000;50.698;13.322;2023-02-25T06:51:48;0.60;99.90
62904;DHT22;49000;50.698;13.322;2023-02-25T06:54:15;0.60;99.90
62904;DHT22;49000;50.698;13.322;2023-02-25T06:56:41;0.60;99.90
62904;DHT22;49000;50.698;13.322;2023-02-25T06:59:07;0.20;99.90
62904;DHT22;49000;50.698;13.322;2023-02-25T07:01:32;0.10;99.90
62904;DHT22;49000;50.698;13.322;2023-02-25T07:03:58;0.20;99.90
62904;DHT22;49000;50.698;13.322;2023-02-25T07:06:24;0.60;99.90
62904;DHT22;49000;50.698;13.322;2023-02-25T07:08:49;0.20;99.90
62904;DHT22;49000;50.698;13.322;2023-02-25T07:13:45;0.40;99.90
62904;DHT22;49000;50.698;13.322;2023-02-25T07:16:12;0.80;99.90
62904;DHT22;49000;50.698;13.322;2023-02-25T07:18:39;0.80;99.90
62904;DHT22;49000;50.698;13.322;2023-02-25T07:21:05;0.80;99.90
62904;DHT22;49000;50.698;13.322;2023-02-25T07:23:31;0.50;99.90
62904;DHT22;49000;50.698;13.322;2023-02-25T07:25:56;1.10;99.90
62904;DHT22;49000;50.698;13.322;2023-02-25T07:28:26;1.10;99.90
62904;DHT22;49000;50.698;13.322;2023-02-25T07:30:51;0.80;99.90
62904;DHT22;49000;50.698;13.322;2023-02-25T07:33:17;1.10;99.90
62904;DHT22;49000;50.698;13.322;2023-02-25T07:35:42;1.00;99.90
62904;DHT22;49000;50.698;13.322;2023-02-25T07:38:08;1.00;99.90
62904;DHT22;49000;50.698;13.322;2023-02-25T07:40:37;1.00;99.90
62904;DHT22;49000;50.698;13.322;2023-02-25T07:43:03;1.00;99.90
62904;DHT22;49000;50.698;13.322;2023-02-25T07:45:29;1.30;99.90
62904;DHT22;49000;50.698;13.322;2023-02-25T07:47:54;1.00;99.90
62904;DHT22;49000;50.698;13.322;2023-02-25T07:50:23;1.30;99.90
62904;DHT22;49000;50.698;13.322;2023-02-25T07:52:48;1.60;99.90
62904;DHT22;49000;50.698;13.322;2023-02-25T07:55:14;1.50;99.90
62904;DHT22;49000;50.698;13.322;2023-02-25T07:57:43;1.40;99.90
62904;DHT22;49000;50.698;13.322;2023-02-25T08:00:08;1.10;99.90
62904;DHT22;49000;50.698;13.322;2023-02-25T08:02:35;1.50;99.90
62904;DHT22;49000;50.698;13.322;2023-02-25T08:05:01;0.80;99.90
62904;DHT22;49000;50.698;13.322;2023-02-25T08:07:28;1.40;99.90
62904;DHT22;49000;50.698;13.322;2023-02-25T08:09:54;1.10;99.90
62904;DHT22;49000;50.698;13.322;2023-02-25T08:12:19;0.80;99.90
62904;DHT22;49000;50.698;13.322;2023-02-25T08:14:45;1.00;99.90
62904;DHT22;49000;50.698;13.322;2023-02-25T08:17:11;1.10;99.90
62904;DHT22;49000;50.698;13.322;2023-02-25T08:19:43;0.60;99.90
62904;DHT22;49000;50.698;13.322;2023-02-25T08:22:09;0.70;99.90
62904;DHT22;49000;50.698;13.322;2023-02-25T08:24:38;0.90;99.90
62904;DHT22;49000;50.698;13.322;2023-02-25T08:27:04;1.20;99.90
62904;DHT22;49000;50.698;13.322;2023-02-25T08:29:31;1.20;99.90
62904;DHT22;49000;50.698;13.322;2023-02-25T08:31:57;0.70;99.90
62904;DHT22;49000;50.698;13.322;2023-02-25T08:34:23;1.00;99.90
62904;DHT22;49000;50.698;13.322;2023-02-25T08:36:49;1.10;99.90
62904;DHT22;49000;50.698;13.322;2023-02-25T08:39:14;1.30;99.90
62904;DHT22;49000;50.698;13.322;2023-02-25T08:41:41;0.60;99.90
62904;DHT22;49000;50.698;13.322;2023-02-25T08:44:08;0.80;99.90
62904;DHT22;49000;50.698;13.322;2023-02-25T08:46:34;1.50;99.90
62904;DHT22;49000;50.698;13.322;2023-02-25T08:49:00;1.30;99.90
62904;DHT22;49000;50.698;13.322;2023-02-25T08:51:26;1.30;99.90
62904;DHT22;49000;50.698;13.322;2023-02-25T08:54:02;1.30;99.90
62904;DHT22;49000;50.698;13.322;2023-02-25T08:56:28;1.50;99.90
62904;DHT22;49000;50.698;13.322;2023-02-25T08:58:54;1.10;99.90
62904;DHT22;49000;50.698;13.322;2023-02-25T09:01:19;1.50;99.90
62904;DHT22;49000;50.698;13.322;2023-02-25T09:03:47;0.90;99.90
62904;DHT22;49000;50.698;13.322;2023-02-25T09:06:24;1.40;99.90
62904;DHT22;49000;50.698;13.322;2023-02-25T09:08:51;1.50;99.90
62904;DHT22;49000;50.698;13.322;2023-02-25T09:11:17;1.00;99.90
62904;DHT22;49000;50.698;13.322;2023-02-25T09:13:43;0.80;99.90
62904;DHT22;49000;50.698;13.322;2023-02-25T09:16:08;1.10;99.90
62904;DHT22;49000;50.698;13.322;2023-02-25T09:18:34;0.80;99.90
62904;DHT22;49000;50.698;13.322;2023-02-25T09:21:00;1.10;99.90
62904;DHT22;49000;50.698;13.322;2023-02-25T09:23:25;1.10;99.90
62904;DHT22;49000;50.698;13.322;2023-02-25T09:25:51;0.70;99.90
62904;DHT22;49000;50.698;13.322;2023-02-25T09:28:17;1.10;99.90
62904;DHT22;49000;50.698;13.322;2023-02-25T09:30:46;1.10;99.90
62904;DHT22;49000;50.698;13.322;2023-02-25T09:33:12;0.80;99.90
62904;DHT22;49000;50.698;13.322;2023-02-25T09:35:38;1.10;99.90
62904;DHT22;49000;50.698;13.322;2023-02-25T09:38:05;1.00;99.90
62904;DHT22;49000;50.698;13.322;2023-02-25T09:40:30;0.80;99.90
62904;DHT22;49000;50.698;13.322;2023-02-25T09:43:02;1.10;99.90
62904;DHT22;49000;50.698;13.322;2023-02-25T09:45:32;1.40;99.90
62904;DHT22;49000;50.698;13.322;2023-02-25T09:48:16;0.90;99.90
62904;DHT22;49000;50.698;13.322;2023-02-25T09:50:47;1.00;99.90
62904;DHT22;49000;50.698;13.322;2023-02-25T09:53:24;1.30;99.90
62904;DHT22;49000;50.698;13.322;2023-02-25T09:55:52;1.20;99.90
62904;DHT22;49000;50.698;13.322;2023-02-25T09:58:43;1.20;99.90
62904;DHT22;49000;50.698;13.322;2023-02-25T10:01:27;1.80;99.90
62904;DHT22;49000;50.698;13.322;2023-02-25T10:04:12;2.00;99.90
62904;DHT22;49000;50.698;13.322;2023-02-25T10:06:46;2.30;99.90
62904;DHT22;49000;50.698;13.322;2023-02-25T10:12:46;2.10;99.90
62904;DHT22;49000;50.698;13.322;2023-02-25T10:18:32;2.00;99.90
62904;DHT22;49000;50.698;13.322;2023-02-25T10:26:33;2.00;99.90
62904;DHT22;49000;50.698;13.322;2023-02-25T10:29:06;1.90;99.90
62904;DHT22;49000;50.698;13.322;2023-02-25T10:31:32;2.00;99.90
62904;DHT22;49000;50.698;13.322;2023-02-25T10:34:13;1.80;99.90
62904;DHT22;49000;50.698;13.322;2023-02-25T10:36:45;1.70;99.90
62904;DHT22;49000;50.698;13.322;2023-02-25T10:39:12;1.80;99.90
62904;DHT22;49000;50.698;13.322;2023-02-25T10:41:37;1.80;99.90
62904;DHT22;49000;50.698;13.322;2023-02-25T10:44:03;2.10;99.90
62904;DHT22;49000;50.698;13.322;2023-02-25T10:46:42;2.30;99.90
62904;DHT22;49000;50.698;13.322;2023-02-25T10:49:18;2.10;99.90
62904;DHT22;49000;50.698;13.322;2023-02-25T10:51:58;2.50;99.90
62904;DHT22;49000;50.698;13.322;2023-02-25T10:54:28;2.50;99.90
62904;DHT22;49000;50.698;13.322;2023-02-25T10:56:54;2.10;99.90
62904;DHT22;49000;50.698;13.322;2023-02-25T10:59:34;1.90;99.90
62904;DHT22;49000;50.698;13.322;2023-02-25T11:02:01;2.10;99.90
62904;DHT22;49000;50.698;13.322;2023-02-25T11:04:36;2.30;99.90
62904;DHT22;49000;50.698;13.322;2023-02-25T11:07:32;2.80;99.90
62904;DHT22;49000;50.698;13.322;2023-02-25T11:10:24;2.40;99.90
62904;DHT22;49000;50.698;13.322;2023-02-25T11:12:53;2.10;99.90
62904;DHT22;49000;50.698;13.322;2023-02-25T11:15:35;2.10;99.90
62904;DHT22;49000;50.698;13.322;2023-02-25T11:20:52;1.70;99.90
62904;DHT22;49000;50.698;13.322;2023-02-25T11:23:28;1.70;99.90
62904;DHT22;49000;50.698;13.322;2023-02-25T11:25:56;2.00;99.90
62904;DHT22;49000;50.698;13.322;2023-02-25T11:30:53;2.10;99.90
62904;DHT22;49000;50.698;13.322;2023-02-25T11:33:31;2.20;99.90
62904;DHT22;49000;50.698;13.322;2023-02-25T11:35:58;1.60;99.90
62904;DHT22;49000;50.698;13.322;2023-02-25T11:38:33;2.00;99.90
62904;DHT22;49000;50.698;13.322;2023-02-25T11:40:58;2.20;99.90
62904;DHT22;49000;50.698;13.322;2023-02-25T11:43:34;1.70;99.90
62904;DHT22;49000;50.698;13.322;2023-02-25T11:46:02;2.10;99.90
62904;DHT22;49000;50.698;13.322;2023-02-25T11:51:23;1.90;99.90
62904;DHT22;49000;50.698;13.322;2023-02-25T11:54:16;2.00;99.90
62904;DHT22;49000;50.698;13.322;2023-02-25T11:57:08;2.10;99.90
62904;DHT22;49000;50.698;13.322;2023-02-25T11:59:38;1.70;99.90
62904;DHT22;49000;50.698;13.322;2023-02-25T12:02:19;1.50;99.90
62904;DHT22;49000;50.698;13.322;2023-02-25T12:05:07;1.70;99.90
62904;DHT22;49000;50.698;13.322;2023-02-25T12:08:01;2.10;99.90
62904;DHT22;49000;50.698;13.322;2023-02-25T12:11:12;1.90;99.90
62904;DHT22;49000;50.698;13.322;2023-02-25T12:17:07;1.90;99.90
62904;DHT22;49000;50.698;13.322;2023-02-25T12:31:01;2.80;99.90
62904;DHT22;49000;50.698;13.322;2023-02-25T12:39:18;2.10;99.90
62904;DHT22;49000;50.698;13.322;2023-02-25T12:41:47;2.00;99.90
62904;DHT22;49000;50.698;13.322;2023-02-25T12:44:43;2.00;99.90
62904;DHT22;49000;50.698;13.322;2023-02-25T12:53:47;2.50;99.90
62904;DHT22;49000;50.698;13.322;2023-02-25T12:56:47;3.00;99.90
62904;DHT22;49000;50.698;13.322;2023-02-25T13:05:38;2.80;99.90
62904;DHT22;49000;50.698;13.322;2023-02-25T13:11:26;2.90;99.90
62904;DHT22;49000;50.698;13.322;2023-02-25T13:14:21;3.20;99.90
62904;DHT22;49000;50.698;13.322;2023-02-25T13:20:00;2.40;99.90
62904;DHT22;49000;50.698;13.322;2023-02-25T13:28:49;2.10;99.90
62904;DHT22;49000;50.698;13.322;2023-02-25T13:34:41;1.90;99.90
62904;DHT22;49000;50.698;13.322;2023-02-25T13:37:16;1.60;99.90
62904;DHT22;49000;50.698;13.322;2023-02-25T13:42:57;1.50;99.90
62904;DHT22;49000;50.698;13.322;2023-02-25T13:48:48;1.70;99.90
62904;DHT22;49000;50.698;13.322;2023-02-25T14:08:52;2.80;99.90
62904;DHT22;49000;50.698;13.322;2023-02-25T14:14:43;2.70;99.70
62904;DHT22;49000;50.698;13.322;2023-02-25T14:20:00;2.30;99.90
62904;DHT22;49000;50.698;13.322;2023-02-25T14:22:52;2.40;99.90
62904;DHT22;49000;50.698;13.322;2023-02-25T14:33:39;1.50;99.90
62904;DHT22;49000;50.698;13.322;2023-02-25T14:44:17;1.00;99.90
62904;DHT22;49000;50.698;13.322;2023-02-25T14:46:55;0.90;99.90
62904;DHT22;49000;50.698;13.322;2023-02-25T14:49:39;1.50;99.90
62904;DHT22;49000;50.698;13.322;2023-02-25T15:01:11;0.90;99.90
62904;DHT22;49000;50.698;13.322;2023-02-25T15:03:53;1.10;99.90
62904;DHT22;49000;50.698;13.322;2023-02-25T15:20:24;0.90;99.90
62904;DHT22;49000;50.698;13.322;2023-02-25T15:23:10;0.90;99.90
62904;DHT22;49000;50.698;13.322;2023-02-25T15:36:01;0.70;99.90
62904;DHT22;49000;50.698;13.322;2023-02-25T15:38:49;0.70;99.90
62904;DHT22;49000;50.698;13.322;2023-02-25T15:49:30;-0.20;99.90
62904;DHT22;49000;50.698;13.322;2023-02-25T15:51:59;0.40;99.90
62904;DHT22;49000;50.698;13.322;2023-02-25T15:59:52;0.50;99.90
62904;DHT22;49000;50.698;13.322;2023-02-25T16:07:32;0.00;99.90
62904;DHT22;49000;50.698;13.322;2023-02-25T16:10:08;0.00;99.90
62904;DHT22;49000;50.698;13.322;2023-02-25T16:12:43;-0.20;99.90
62904;DHT22;49000;50.698;13.322;2023-02-25T16:15:14;-0.50;99.90
62904;DHT22;49000;50.698;13.322;2023-02-25T16:17:42;-0.10;99.90
62904;DHT22;49000;50.698;13.322;2023-02-25T16:22:47;-0.20;99.90
62904;DHT22;49000;50.698;13.322;2023-02-25T16:25:39;-0.40;99.90
62904;DHT22;49000;50.698;13.322;2023-02-25T16:28:34;-0.10;99.90
62904;DHT22;49000;50.698;13.322;2023-02-25T16:31:23;0.10;99.90
62904;DHT22;49000;50.698;13.322;2023-02-25T16:34:03;-0.50;99.90
62904;DHT22;49000;50.698;13.322;2023-02-25T16:36:37;-0.30;99.90
62904;DHT22;49000;50.698;13.322;2023-02-25T16:39:09;-0.50;99.90
62904;DHT22;49000;50.698;13.322;2023-02-25T16:41:36;-0.40;99.90
62904;DHT22;49000;50.698;13.322;2023-02-25T16:44:02;-0.50;99.90
62904;DHT22;49000;50.698;13.322;2023-02-25T16:46:31;-0.50;99.90
62904;DHT22;49000;50.698;13.322;2023-02-25T16:48:59;-0.40;99.90
62904;DHT22;49000;50.698;13.322;2023-02-25T16:51:32;-0.80;99.90
62904;DHT22;49000;50.698;13.322;2023-02-25T16:54:04;-0.60;99.90
62904;DHT22;49000;50.698;13.322;2023-02-25T16:56:31;-1.00;99.90
62904;DHT22;49000;50.698;13.322;2023-02-25T16:59:03;-1.30;99.90
62904;DHT22;49000;50.698;13.322;2023-02-25T17:01:30;-0.80;99.90
62904;DHT22;49000;50.698;13.322;2023-02-25T17:04:14;-1.30;99.90
62904;DHT22;49000;50.698;13.322;2023-02-25T17:06:40;-0.80;99.90
62904;DHT22;49000;50.698;13.322;2023-02-25T17:09:06;-1.40;99.90
62904;DHT22;49000;50.698;13.322;2023-02-25T17:11:50;-1.20;99.90
62904;DHT22;49000;50.698;13.322;2023-02-25T17:14:17;-0.80;99.90
62904;DHT22;49000;50.698;13.322;2023-02-25T17:16:43;-0.80;99.90
62904;DHT22;49000;50.698;13.322;2023-02-25T17:19:09;-0.90;99.90
62904;DHT22;49000;50.698;13.322;2023-02-25T17:21:38;-1.30;99.90
62904;DHT22;49000;50.698;13.322;2023-02-25T17:24:10;-1.00;99.90
62904;DHT22;49000;50.698;13.322;2023-02-25T17:26:40;-1.10;99.90
62904;DHT22;49000;50.698;13.322;2023-02-25T17:29:10;-1.50;99.90
62904;DHT22;49000;50.698;13.322;2023-02-25T17:31:45;-1.00;99.90
62904;DHT22;49000;50.698;13.322;2023-02-25T17:34:29;-1.50;99.90
62904;DHT22;49000;50.698;13.322;2023-02-25T17:36:57;-1.10;99.90
62904;DHT22;49000;50.698;13.322;2023-02-25T17:39:25;-1.00;99.90
62904;DHT22;49000;50.698;13.322;2023-02-25T17:41:51;-1.20;99.90
62904;DHT22;49000;50.698;13.322;2023-02-25T17:47:07;-1.60;99.90
62904;DHT22;49000;50.698;13.322;2023-02-25T17:49:35;-0.90;99.90
62904;DHT22;49000;50.698;13.322;2023-02-25T17:52:04;-1.00;99.90
62904;DHT22;49000;50.698;13.322;2023-02-25T17:54:35;-0.90;99.90
62904;DHT22;49000;50.698;13.322;2023-02-25T17:57:08;-1.50;99.90
62904;DHT22;49000;50.698;13.322;2023-02-25T17:59:41;-0.80;99.90
62904;DHT22;49000;50.698;13.322;2023-02-25T18:02:27;-0.90;99.90
62904;DHT22;49000;50.698;13.322;2023-02-25T18:08:01;-1.20;99.90
62904;DHT22;49000;50.698;13.322;2023-02-25T18:12:58;-1.50;99.90
62904;DHT22;49000;50.698;13.322;2023-02-25T18:15:26;-0.90;99.90
62904;DHT22;49000;50.698;13.322;2023-02-25T18:18:05;-1.20;99.90
62904;DHT22;49000;50.698;13.322;2023-02-25T18:20:33;-1.20;99.90
62904;DHT22;49000;50.698;13.322;2023-02-25T18:23:19;-1.10;99.90
62904;DHT22;49000;50.698;13.322;2023-02-25T18:25:48;-1.20;99.90
62904;DHT22;49000;50.698;13.322;2023-02-25T18:28:20;-1.40;99.90
62904;DHT22;49000;50.698;13.322;2023-02-25T18:30:46;-1.20;99.90
62904;DHT22;49000;50.698;13.322;2023-02-25T18:33:13;-1.40;99.90
62904;DHT22;49000;50.698;13.322;2023-02-25T18:35:42;-0.90;99.90
62904;DHT22;49000;50.698;13.322;2023-02-25T18:38:14;-1.00;99.90
62904;DHT22;49000;50.698;13.322;2023-02-25T18:40:40;-1.30;99.90
62904;DHT22;49000;50.698;13.322;2023-02-25T18:43:06;-1.10;99.90
62904;DHT22;49000;50.698;13.322;2023-02-25T18:45:33;-1.00;99.90
62904;DHT22;49000;50.698;13.322;2023-02-25T18:47:58;-1.40;99.90
62904;DHT22;49000;50.698;13.322;2023-02-25T18:50:31;-0.90;99.90
62904;DHT22;49000;50.698;13.322;2023-02-25T18:52:57;-1.30;99.90
62904;DHT22;49000;50.698;13.322;2023-02-25T18:55:26;-0.80;99.90
62904;DHT22;49000;50.698;13.322;2023-02-25T18:57:52;-1.30;99.90
62904;DHT22;49000;50.698;13.322;2023-02-25T19:00:19;-1.30;99.90
62904;DHT22;49000;50.698;13.322;2023-02-25T19:02:59;-0.70;99.90
62904;DHT22;49000;50.698;13.322;2023-02-25T19:05:26;-1.10;99.90